sensor_id;sensor_type;location;lat;lon;timestamp;temperature;humidity
16283;DHT22;8249;48.708;9.030;2023-04-15T00:02:14;3.80;99.90
16283;DHT22;8249;48.708;9.030;2023-04-15T00:04:41;3.80;99.90
16283;DHT22;8249;48.708;9.030;2023-04-15T00:07:08;3.70;99.90
16283;DHT22;8249;48.708;9.030;2023-04-15T00:09:35;3.70;99.90
16283;DHT22;8249;48.708;9.030;2023-04-15T00:12:02;3.70;99.90
16283;DHT22;8249;48.708;9.030;2023-04-15T00:14:31;3.60;99.90
16283;DHT22;8249;48.708;9.030;2023-04-15T00:16:57;3.60;99.90
16283;DHT22;8249;48.708;9.030;2023-04-15T00:19:24;3.60;99.90
16283;DHT22;8249;48.708;9.030;2023-04-15T00:21:51;3.60;99.90
16283;DHT22;8249;48.708;9.030;2023-04-15T00:24:18;3.60;99.90
16283;DHT22;8249;48.708;9.030;2023-04-15T00:26:45;3.50;99.90
16283;DHT22;8249;48.708;9.030;2023-04-15T00:29:13;3.50;99.90
16283;DHT22;8249;48.708;9.030;2023-04-15T00:31:41;3.60;99.90
16283;DHT22;8249;48.708;9.030;2023-04-15T00:34:08;3.40;99.90
16283;DHT22;8249;48.708;9.030;2023-04-15T00:36:35;3.40;99.90
16283;DHT22;8249;48.708;9.030;2023-04-15T00:39:02;3.40;99.90
16283;DHT22;8249;48.708;9.030;2023-04-15T00:41:30;3.40;99.90
16283;DHT22;8249;48.708;9.030;2023-04-15T00:43:58;3.30;99.90
16283;DHT22;8249;48.708;9.030;2023-04-15T00:46:27;3.30;99.90
16283;DHT22;8249;48.708;9.030;2023-04-15T00:48:56;3.30;99.90
16283;DHT22;8249;48.708;9.030;2023-04-15T00:51:23;3.20;99.90
16283;DHT22;8249;48.708;9.030;2023-04-15T00:53:50;3.20;99.90
16283;DHT22;8249;48.708;9.030;2023-04-15T00:56:19;3.20;99.90
16283;DHT22;8249;48.708;9.030;2023-04-15T00:58:50;3.20;99.90
16283;DHT22;8249;48.708;9.030;2023-04-15T01:01:20;3.20;99.90
16283;DHT22;8249;48.708;9.030;2023-04-15T01:03:48;3.10;99.90
16283;DHT22;8249;48.708;9.030;2023-04-15T01:06:17;3.10;99.90
16283;DHT22;8249;48.708;9.030;2023-04-15T01:08:44;3.00;99.90
16283;DHT22;8249;48.708;9.030;2023-04-15T01:11:11;3.00;99.90
16283;DHT22;8249;48.708;9.030;2023-04-15T01:13:39;3.00;99.90
16283;DHT22;8249;48.708;9.030;2023-04-15T01:16:06;3.00;99.90
16283;DHT22;8249;48.708;9.030;2023-04-15T01:18:34;2.90;99.90
16283;DHT22;8249;48.708;9.030;2023-04-15T01:21:02;2.90;99.90
16283;DHT22;8249;48.708;9.030;2023-04-15T01:23:32;2.90;99.90
16283;DHT22;8249;48.708;9.030;2023-04-15T01:26:03;2.90;99.90
16283;DHT22;8249;48.708;9.030;2023-04-15T01:28:30;2.80;99.90
16283;DHT22;8249;48.708;9.030;2023-04-15T01:31:07;2.80;99.90
16283;DHT22;8249;48.708;9.030;2023-04-15T01:33:38;2.80;99.90
16283;DHT22;8249;48.708;9.030;2023-04-15T01:36:07;2.80;99.90
16283;DHT22;8249;48.708;9.030;2023-04-15T01:38:34;2.80;99.90
16283;DHT22;8249;48.708;9.030;2023-04-15T01:41:03;2.80;99.90
16283;DHT22;8249;48.708;9.030;2023-04-15T01:43:32;2.80;99.90
16283;DHT22;8249;48.708;9.030;2023-04-15T01:45:59;2.70;99.90
16283;DHT22;8249;48.708;9.030;2023-04-15T01:48:26;2.70;99.90
16283;DHT22;8249;48.708;9.030;2023-04-15T01:50:53;2.70;99.90
16283;DHT22;8249;48.708;9.030;2023-04-15T01:53:22;2.70;99.90
16283;DHT22;8249;48.708;9.030;2023-04-15T01:55:49;2.60;99.90
16283;DHT22;8249;48.708;9.030;2023-04-15T01:58:18;2.60;99.90
16283;DHT22;8249;48.708;9.030;2023-04-15T02:00:45;2.60;99.90
16283;DHT22;8249;48.708;9.030;2023-04-15T02:03:12;2.60;99.90
16283;DHT22;8249;48.708;9.030;2023-04-15T02:05:39;2.60;99.90
16283;DHT22;8249;48.708;9.030;2023-04-15T02:08:06;2.60;99.90
16283;DHT22;8249;48.708;9.030;2023-04-15T02:10:35;2.50;99.90
16283;DHT22;8249;48.708;9.030;2023-04-15T02:13:04;2.50;99.90
16283;DHT22;8249;48.708;9.030;2023-04-15T02:15:32;2.50;99.90
16283;DHT22;8249;48.708;9.030;2023-04-15T02:17:59;2.40;99.90
16283;DHT22;8249;48.708;9.030;2023-04-15T02:20:27;2.40;99.90
16283;DHT22;8249;48.708;9.030;2023-04-15T02:22:57;2.40;99.90
16283;DHT22;8249;48.708;9.030;2023-04-15T02:25:24;2.30;99.90
16283;DHT22;8249;48.708;9.030;2023-04-15T02:27:50;2.30;99.90
16283;DHT22;8249;48.708;9.030;2023-04-15T02:30:18;2.40;99.90
16283;DHT22;8249;48.708;9.030;2023-04-15T02:32:46;2.30;99.90
16283;DHT22;8249;48.708;9.030;2023-04-15T02:35:13;2.20;99.90
16283;DHT22;8249;48.708;9.030;2023-04-15T02:37:40;2.20;99.90
16283;DHT22;8249;48.708;9.030;2023-04-15T02:40:11;2.20;99.90
16283;DHT22;8249;48.708;9.030;2023-04-15T02:42:38;2.10;99.90
16283;DHT22;8249;48.708;9.030;2023-04-15T02:45:08;2.10;99.90
16283;DHT22;8249;48.708;9.030;2023-04-15T02:47:37;2.10;99.90
16283;DHT22;8249;48.708;9.030;2023-04-15T02:50:10;2.10;99.90
16283;DHT22;8249;48.708;9.030;2023-04-15T02:52:38;2.10;99.90
16283;DHT22;8249;48.708;9.030;2023-04-15T02:55:06;2.00;99.90
16283;DHT22;8249;48.708;9.030;2023-04-15T02:57:35;2.00;99.90
16283;DHT22;8249;48.708;9.030;2023-04-15T03:00:06;2.00;99.90
16283;DHT22;8249;48.708;9.030;2023-04-15T03:02:38;2.00;99.90
16283;DHT22;8249;48.708;9.030;2023-04-15T03:05:10;1.90;99.90
16283;DHT22;8249;48.708;9.030;2023-04-15T03:07:38;1.90;99.90
16283;DHT22;8249;48.708;9.030;2023-04-15T03:10:06;1.90;99.90
16283;DHT22;8249;48.708;9.030;2023-04-15T03:12:34;1.90;99.90
16283;DHT22;8249;48.708;9.030;2023-04-15T03:15:01;1.90;99.90
16283;DHT22;8249;48.708;9.030;2023-04-15T03:17:35;1.90;99.90
16283;DHT22;8249;48.708;9.030;2023-04-15T03:20:03;2.00;99.90
16283;DHT22;8249;48.708;9.030;2023-04-15T03:22:32;1.90;99.90
16283;DHT22;8249;48.708;9.030;2023-04-15T03:24:59;1.90;99.90
16283;DHT22;8249;48.708;9.030;2023-04-15T03:27:26;1.90;99.90
16283;DHT22;8249;48.708;9.030;2023-04-15T03:29:56;1.90;99.90
16283;DHT22;8249;48.708;9.030;2023-04-15T03:32:25;1.90;99.90
16283;DHT22;8249;48.708;9.030;2023-04-15T03:34:52;1.90;99.90
16283;DHT22;8249;48.708;9.030;2023-04-15T03:37:19;1.80;99.90
16283;DHT22;8249;48.708;9.030;2023-04-15T03:39:48;1.80;99.90
16283;DHT22;8249;48.708;9.030;2023-04-15T03:42:15;1.80;99.90
16283;DHT22;8249;48.708;9.030;2023-04-15T03:44:42;1.80;99.90
16283;DHT22;8249;48.708;9.030;2023-04-15T03:47:08;1.80;99.90
16283;DHT22;8249;48.708;9.030;2023-04-15T03:49:36;1.80;99.90
16283;DHT22;8249;48.708;9.030;2023-04-15T03:52:03;1.70;99.90
16283;DHT22;8249;48.708;9.030;2023-04-15T03:54:30;1.70;99.90
16283;DHT22;8249;48.708;9.030;2023-04-15T03:56:58;1.70;99.90
16283;DHT22;8249;48.708;9.030;2023-04-15T03:59:25;1.70;99.90
16283;DHT22;8249;48.708;9.030;2023-04-15T04:01:52;1.70;99.90
16283;DHT22;8249;48.708;9.030;2023-04-15T04:04:19;1.60;99.90
16283;DHT22;8249;48.708;9.030;2023-04-15T04:06:46;1.60;99.90
16283;DHT22;8249;48.708;9.030;2023-04-15T04:09:13;1.60;99.90
16283;DHT22;8249;48.708;9.030;2023-04-15T04:11:40;1.60;99.90
16283;DHT22;8249;48.708;9.030;2023-04-15T04:14:08;1.60;99.90
16283;DHT22;8249;48.708;9.030;2023-04-15T04:16:35;1.60;99.90
16283;DHT22;8249;48.708;9.030;2023-04-15T04:19:02;1.60;99.90
16283;DHT22;8249;48.708;9.030;2023-04-15T04:21:29;1.60;99.90
16283;DHT22;8249;48.708;9.030;2023-04-15T04:23:58;1.70;99.90
16283;DHT22;8249;48.708;9.030;2023-04-15T04:26:25;1.60;99.90
16283;DHT22;8249;48.708;9.030;2023-04-15T04:28:52;1.60;99.90
16283;DHT22;8249;48.708;9.030;2023-04-15T04:31:20;1.70;99.90
16283;DHT22;8249;48.708;9.030;2023-04-15T04:33:47;1.60;99.90
16283;DHT22;8249;48.708;9.030;2023-04-15T04:36:14;1.60;99.90
16283;DHT22;8249;48.708;9.030;2023-04-15T04:38:41;1.60;99.90
16283;DHT22;8249;48.708;9.030;2023-04-15T04:41:08;1.60;99.90
16283;DHT22;8249;48.708;9.030;2023-04-15T04:43:35;1.60;99.90
16283;DHT22;8249;48.708;9.030;2023-04-15T04:46:02;1.70;99.90
16283;DHT22;8249;48.708;9.030;2023-04-15T04:48:30;1.80;99.90
16283;DHT22;8249;48.708;9.030;2023-04-15T04:50:58;2.00;99.90
16283;DHT22;8249;48.708;9.030;2023-04-15T04:53:25;2.10;99.90
16283;DHT22;8249;48.708;9.030;2023-04-15T04:55:52;2.20;99.90
16283;DHT22;8249;48.708;9.030;2023-04-15T04:58:19;2.20;99.90
16283;DHT22;8249;48.708;9.030;2023-04-15T05:00:46;2.30;99.90
16283;DHT22;8249;48.708;9.030;2023-04-15T05:03:13;2.40;99.90
16283;DHT22;8249;48.708;9.030;2023-04-15T05:05:42;2.40;99.90
16283;DHT22;8249;48.708;9.030;2023-04-15T05:08:08;2.50;99.90
16283;DHT22;8249;48.708;9.030;2023-04-15T05:10:35;2.50;99.90
16283;DHT22;8249;48.708;9.030;2023-04-15T05:13:03;2.50;99.90
16283;DHT22;8249;48.708;9.030;2023-04-15T05:15:30;2.60;99.90
16283;DHT22;8249;48.708;9.030;2023-04-15T05:17:57;2.70;99.90
16283;DHT22;8249;48.708;9.030;2023-04-15T05:20:24;2.70;99.90
16283;DHT22;8249;48.708;9.030;2023-04-15T05:22:52;2.70;99.90
16283;DHT22;8249;48.708;9.030;2023-04-15T05:25:19;2.60;99.90
16283;DHT22;8249;48.708;9.030;2023-04-15T05:27:46;2.70;99.90
16283;DHT22;8249;48.708;9.030;2023-04-15T05:30:13;2.70;99.90
16283;DHT22;8249;48.708;9.030;2023-04-15T05:32:40;2.80;99.90
16283;DHT22;8249;48.708;9.030;2023-04-15T05:35:07;3.00;99.90
16283;DHT22;8249;48.708;9.030;2023-04-15T05:37:34;3.10;99.90
16283;DHT22;8249;48.708;9.030;2023-04-15T05:40:02;3.10;99.90
16283;DHT22;8249;48.708;9.030;2023-04-15T05:42:29;3.00;99.90
16283;DHT22;8249;48.708;9.030;2023-04-15T05:44:56;3.00;99.90
16283;DHT22;8249;48.708;9.030;2023-04-15T05:47:23;3.10;99.90
16283;DHT22;8249;48.708;9.030;2023-04-15T05:49:50;3.10;99.90
16283;DHT22;8249;48.708;9.030;2023-04-15T05:52:17;3.20;99.90
16283;DHT22;8249;48.708;9.030;2023-04-15T05:54:44;3.30;99.90
16283;DHT22;8249;48.708;9.030;2023-04-15T05:57:12;3.40;99.90
16283;DHT22;8249;48.708;9.030;2023-04-15T05:59:39;3.50;99.90
16283;DHT22;8249;48.708;9.030;2023-04-15T06:02:06;3.50;99.90
16283;DHT22;8249;48.708;9.030;2023-04-15T06:04:33;3.60;99.90
16283;DHT22;8249;48.708;9.030;2023-04-15T06:07:01;3.60;99.90
16283;DHT22;8249;48.708;9.030;2023-04-15T06:09:28;3.70;99.90
16283;DHT22;8249;48.708;9.030;2023-04-15T06:11:55;3.80;99.90
16283;DHT22;8249;48.708;9.030;2023-04-15T06:14:24;3.90;99.90
16283;DHT22;8249;48.708;9.030;2023-04-15T06:16:51;4.10;99.90
16283;DHT22;8249;48.708;9.030;2023-04-15T06:19:18;4.10;99.90
16283;DHT22;8249;48.708;9.030;2023-04-15T06:21:45;4.30;99.90
16283;DHT22;8249;48.708;9.030;2023-04-15T06:24:12;4.50;99.90
16283;DHT22;8249;48.708;9.030;2023-04-15T06:26:39;4.60;99.90
16283;DHT22;8249;48.708;9.030;2023-04-15T06:29:06;4.60;99.90
16283;DHT22;8249;48.708;9.030;2023-04-15T06:31:35;4.80;99.90
16283;DHT22;8249;48.708;9.030;2023-04-15T06:34:02;5.00;99.90
16283;DHT22;8249;48.708;9.030;2023-04-15T06:36:28;5.10;99.90
16283;DHT22;8249;48.708;9.030;2023-04-15T06:38:57;5.30;99.90
16283;DHT22;8249;48.708;9.030;2023-04-15T06:41:24;5.50;99.90
16283;DHT22;8249;48.708;9.030;2023-04-15T06:43:50;5.60;99.90
16283;DHT22;8249;48.708;9.030;2023-04-15T06:46:17;5.80;99.90
16283;DHT22;8249;48.708;9.030;2023-04-15T06:48:46;6.00;99.90
16283;DHT22;8249;48.708;9.030;2023-04-15T06:51:13;6.20;99.90
16283;DHT22;8249;48.708;9.030;2023-04-15T06:53:39;6.30;99.90
16283;DHT22;8249;48.708;9.030;2023-04-15T06:56:08;6.40;99.90
16283;DHT22;8249;48.708;9.030;2023-04-15T06:58:35;6.60;99.90
16283;DHT22;8249;48.708;9.030;2023-04-15T07:01:03;6.80;99.90
16283;DHT22;8249;48.708;9.030;2023-04-15T07:03:30;7.00;99.90
16283;DHT22;8249;48.708;9.030;2023-04-15T07:05:58;7.20;99.90
16283;DHT22;8249;48.708;9.030;2023-04-15T07:08:26;7.50;99.90
16283;DHT22;8249;48.708;9.030;2023-04-15T07:10:53;7.60;99.90
16283;DHT22;8249;48.708;9.030;2023-04-15T07:13:20;7.90;99.90
16283;DHT22;8249;48.708;9.030;2023-04-15T07:15:47;8.10;99.90
16283;DHT22;8249;48.708;9.030;2023-04-15T07:18:14;8.40;99.90
16283;DHT22;8249;48.708;9.030;2023-04-15T07:20:41;8.60;99.90
16283;DHT22;8249;48.708;9.030;2023-04-15T07:23:10;8.70;99.90
16283;DHT22;8249;48.708;9.030;2023-04-15T07:25:37;8.90;99.90
16283;DHT22;8249;48.708;9.030;2023-04-15T07:28:04;9.00;99.90
16283;DHT22;8249;48.708;9.030;2023-04-15T07:30:31;9.10;99.90
16283;DHT22;8249;48.708;9.030;2023-04-15T07:32:58;9.30;99.90
16283;DHT22;8249;48.708;9.030;2023-04-15T07:35:25;9.50;99.90
16283;DHT22;8249;48.708;9.030;2023-04-15T07:37:52;9.80;99.90
16283;DHT22;8249;48.708;9.030;2023-04-15T07:40:20;10.00;99.90
16283;DHT22;8249;48.708;9.030;2023-04-15T07:42:48;10.10;99.90
16283;DHT22;8249;48.708;9.030;2023-04-15T07:45:15;10.10;99.90
16283;DHT22;8249;48.708;9.030;2023-04-15T07:47:42;10.10;99.90
16283;DHT22;8249;48.708;9.030;2023-04-15T07:50:09;10.20;99.90
16283;DHT22;8249;48.708;9.030;2023-04-15T07:52:36;10.20;99.90
16283;DHT22;8249;48.708;9.030;2023-04-15T07:55:05;10.30;99.90
16283;DHT22;8249;48.708;9.030;2023-04-15T07:57:34;10.50;99.90
16283;DHT22;8249;48.708;9.030;2023-04-15T08:00:02;10.70;99.90
16283;DHT22;8249;48.708;9.030;2023-04-15T08:02:38;11.00;99.90
16283;DHT22;8249;48.708;9.030;2023-04-15T08:05:06;11.50;99.90
16283;DHT22;8249;48.708;9.030;2023-04-15T08:07:33;12.00;99.90
16283;DHT22;8249;48.708;9.030;2023-04-15T08:10:01;12.40;99.90
16283;DHT22;8249;48.708;9.030;2023-04-15T08:12:27;12.80;99.90
16283;DHT22;8249;48.708;9.030;2023-04-15T08:14:56;13.00;99.90
16283;DHT22;8249;48.708;9.030;2023-04-15T08:17:23;13.30;99.90
16283;DHT22;8249;48.708;9.030;2023-04-15T08:19:50;13.60;99.90
16283;DHT22;8249;48.708;9.030;2023-04-15T08:22:18;13.80;99.90
16283;DHT22;8249;48.708;9.030;2023-04-15T08:24:45;14.10;99.90
16283;DHT22;8249;48.708;9.030;2023-04-15T08:27:12;14.40;99.90
16283;DHT22;8249;48.708;9.030;2023-04-15T08:29:39;14.50;99.90
16283;DHT22;8249;48.708;9.030;2023-04-15T08:32:07;14.40;99.90
16283;DHT22;8249;48.708;9.030;2023-04-15T08:34:35;14.40;99.90
16283;DHT22;8249;48.708;9.030;2023-04-15T08:37:02;14.50;99.90
16283;DHT22;8249;48.708;9.030;2023-04-15T08:39:29;14.30;99.90
16283;DHT22;8249;48.708;9.030;2023-04-15T08:41:59;14.40;99.90
16283;DHT22;8249;48.708;9.030;2023-04-15T08:44:28;14.50;99.90
16283;DHT22;8249;48.708;9.030;2023-04-15T08:46:56;14.60;99.90
16283;DHT22;8249;48.708;9.030;2023-04-15T08:49:28;14.70;99.90
16283;DHT22;8249;48.708;9.030;2023-04-15T08:51:57;14.90;99.60
16283;DHT22;8249;48.708;9.030;2023-04-15T08:54:25;15.00;99.00
16283;DHT22;8249;48.708;9.030;2023-04-15T08:56:52;15.00;99.80
16283;DHT22;8249;48.708;9.030;2023-04-15T08:59:20;15.20;97.80
16283;DHT22;8249;48.708;9.030;2023-04-15T09:01:48;15.30;97.60
16283;DHT22;8249;48.708;9.030;2023-04-15T09:04:15;15.30;97.40
16283;DHT22;8249;48.708;9.030;2023-04-15T09:06:44;15.10;98.20
16283;DHT22;8249;48.708;9.030;2023-04-15T09:09:11;15.20;98.00
16283;DHT22;8249;48.708;9.030;2023-04-15T09:11:39;15.70;97.20
16283;DHT22;8249;48.708;9.030;2023-04-15T09:14:06;16.30;97.00
16283;DHT22;8249;48.708;9.030;2023-04-15T09:16:58;17.10;96.10
16283;DHT22;8249;48.708;9.030;2023-04-15T09:19:25;17.20;94.10
16283;DHT22;8249;48.708;9.030;2023-04-15T09:21:55;17.30;95.10
16283;DHT22;8249;48.708;9.030;2023-04-15T09:24:22;17.40;92.70
16283;DHT22;8249;48.708;9.030;2023-04-15T09:26:52;17.50;92.60
16283;DHT22;8249;48.708;9.030;2023-04-15T09:29:23;17.40;90.20
16283;DHT22;8249;48.708;9.030;2023-04-15T09:31:50;17.10;90.00
16283;DHT22;8249;48.708;9.030;2023-04-15T09:34:17;17.10;86.50
16283;DHT22;8249;48.708;9.030;2023-04-15T09:36:55;17.10;88.70
16283;DHT22;8249;48.708;9.030;2023-04-15T09:39:22;17.10;84.20
16283;DHT22;8249;48.708;9.030;2023-04-15T09:42:05;17.40;87.80
16283;DHT22;8249;48.708;9.030;2023-04-15T09:44:33;17.80;87.20
16283;DHT22;8249;48.708;9.030;2023-04-15T09:47:00;18.10;88.20
16283;DHT22;8249;48.708;9.030;2023-04-15T09:49:27;18.20;86.80
16283;DHT22;8249;48.708;9.030;2023-04-15T09:51:59;18.50;84.20
16283;DHT22;8249;48.708;9.030;2023-04-15T09:54:33;18.60;86.20
16283;DHT22;8249;48.708;9.030;2023-04-15T09:57:04;18.50;82.10
16283;DHT22;8249;48.708;9.030;2023-04-15T09:59:32;17.90;82.90
16283;DHT22;8249;48.708;9.030;2023-04-15T10:02:00;17.60;83.40
16283;DHT22;8249;48.708;9.030;2023-04-15T10:04:29;17.30;84.60
16283;DHT22;8249;48.708;9.030;2023-04-15T10:06:57;17.20;89.30
16283;DHT22;8249;48.708;9.030;2023-04-15T10:09:26;17.10;89.40
16283;DHT22;8249;48.708;9.030;2023-04-15T10:11:53;17.00;83.90
16283;DHT22;8249;48.708;9.030;2023-04-15T10:14:21;16.90;86.10
16283;DHT22;8249;48.708;9.030;2023-04-15T10:16:50;17.20;85.50
16283;DHT22;8249;48.708;9.030;2023-04-15T10:19:21;17.20;81.40
16283;DHT22;8249;48.708;9.030;2023-04-15T10:21:51;17.10;83.30
16283;DHT22;8249;48.708;9.030;2023-04-15T10:24:20;16.70;84.00
16283;DHT22;8249;48.708;9.030;2023-04-15T10:26:48;16.30;82.20
16283;DHT22;8249;48.708;9.030;2023-04-15T10:29:16;16.30;83.50
16283;DHT22;8249;48.708;9.030;2023-04-15T10:31:43;16.40;83.00
16283;DHT22;8249;48.708;9.030;2023-04-15T10:34:11;16.30;84.30
16283;DHT22;8249;48.708;9.030;2023-04-15T10:36:38;16.30;83.50
16283;DHT22;8249;48.708;9.030;2023-04-15T10:39:42;16.30;83.90
16283;DHT22;8249;48.708;9.030;2023-04-15T10:42:10;16.20;86.50
16283;DHT22;8249;48.708;9.030;2023-04-15T10:44:38;16.00;87.40
16283;DHT22;8249;48.708;9.030;2023-04-15T10:47:14;16.20;85.90
16283;DHT22;8249;48.708;9.030;2023-04-15T10:49:45;16.10;85.30
16283;DHT22;8249;48.708;9.030;2023-04-15T10:52:14;15.90;87.80
16283;DHT22;8249;48.708;9.030;2023-04-15T10:54:43;15.70;87.60
16283;DHT22;8249;48.708;9.030;2023-04-15T10:57:16;15.40;90.00
16283;DHT22;8249;48.708;9.030;2023-04-15T11:00:00;15.30;90.60
16283;DHT22;8249;48.708;9.030;2023-04-15T11:02:44;15.20;91.60
16283;DHT22;8249;48.708;9.030;2023-04-15T11:05:12;15.10;92.20
16283;DHT22;8249;48.708;9.030;2023-04-15T11:07:47;15.00;92.70
16283;DHT22;8249;48.708;9.030;2023-04-15T11:13:22;14.70;94.30
16283;DHT22;8249;48.708;9.030;2023-04-15T11:15:57;14.50;96.30
16283;DHT22;8249;48.708;9.030;2023-04-15T11:18:28;14.20;94.20
16283;DHT22;8249;48.708;9.030;2023-04-15T11:20:58;14.00;94.40
16283;DHT22;8249;48.708;9.030;2023-04-15T11:23:34;14.00;93.50
16283;DHT22;8249;48.708;9.030;2023-04-15T11:26:03;14.30;93.50
16283;DHT22;8249;48.708;9.030;2023-04-15T11:28:35;14.70;93.10
16283;DHT22;8249;48.708;9.030;2023-04-15T11:31:06;15.80;92.80
16283;DHT22;8249;48.708;9.030;2023-04-15T11:33:35;17.30;91.60
16283;DHT22;8249;48.708;9.030;2023-04-15T11:36:02;18.20;85.80
16283;DHT22;8249;48.708;9.030;2023-04-15T11:38:29;18.10;85.80
16283;DHT22;8249;48.708;9.030;2023-04-15T11:40:57;18.00;85.10
16283;DHT22;8249;48.708;9.030;2023-04-15T11:43:24;18.10;85.60
16283;DHT22;8249;48.708;9.030;2023-04-15T11:45:54;18.90;85.60
16283;DHT22;8249;48.708;9.030;2023-04-15T11:48:23;19.50;82.30
16283;DHT22;8249;48.708;9.030;2023-04-15T11:50:55;19.60;80.70
16283;DHT22;8249;48.708;9.030;2023-04-15T11:53:23;19.20;79.90
16283;DHT22;8249;48.708;9.030;2023-04-15T11:55:51;19.00;80.00
16283;DHT22;8249;48.708;9.030;2023-04-15T11:58:19;19.00;80.80
16283;DHT22;8249;48.708;9.030;2023-04-15T12:00:48;18.70;79.50
16283;DHT22;8249;48.708;9.030;2023-04-15T12:03:21;18.50;80.40
16283;DHT22;8249;48.708;9.030;2023-04-15T12:06:11;18.80;79.90
16283;DHT22;8249;48.708;9.030;2023-04-15T12:09:09;19.00;79.50
16283;DHT22;8249;48.708;9.030;2023-04-15T12:11:39;19.70;80.50
16283;DHT22;8249;48.708;9.030;2023-04-15T12:14:11;19.60;78.30
16283;DHT22;8249;48.708;9.030;2023-04-15T12:16:40;19.30;81.50
16283;DHT22;8249;48.708;9.030;2023-04-15T12:19:12;19.20;82.70
16283;DHT22;8249;48.708;9.030;2023-04-15T12:21:40;19.70;83.90
16283;DHT22;8249;48.708;9.030;2023-04-15T12:24:09;19.10;78.90
16283;DHT22;8249;48.708;9.030;2023-04-15T12:26:42;19.30;83.10
16283;DHT22;8249;48.708;9.030;2023-04-15T12:29:11;19.60;80.70
16283;DHT22;8249;48.708;9.030;2023-04-15T12:31:49;19.60;79.10
16283;DHT22;8249;48.708;9.030;2023-04-15T12:34:25;19.90;78.60
16283;DHT22;8249;48.708;9.030;2023-04-15T12:36:52;20.10;78.30
16283;DHT22;8249;48.708;9.030;2023-04-15T12:39:21;19.80;80.20
16283;DHT22;8249;48.708;9.030;2023-04-15T12:41:49;19.70;76.40
16283;DHT22;8249;48.708;9.030;2023-04-15T12:44:16;19.20;74.60
16283;DHT22;8249;48.708;9.030;2023-04-15T12:46:43;19.60;74.60
16283;DHT22;8249;48.708;9.030;2023-04-15T12:49:10;19.40;73.60
16283;DHT22;8249;48.708;9.030;2023-04-15T12:51:38;19.50;75.80
16283;DHT22;8249;48.708;9.030;2023-04-15T12:54:05;20.50;78.80
16283;DHT22;8249;48.708;9.030;2023-04-15T12:56:32;20.30;75.30
16283;DHT22;8249;48.708;9.030;2023-04-15T12:58:59;20.50;78.90
16283;DHT22;8249;48.708;9.030;2023-04-15T13:01:26;19.70;82.00
16283;DHT22;8249;48.708;9.030;2023-04-15T13:03:53;18.80;84.00
16283;DHT22;8249;48.708;9.030;2023-04-15T13:06:20;17.80;85.60
16283;DHT22;8249;48.708;9.030;2023-04-15T13:08:50;16.90;87.80
16283;DHT22;8249;48.708;9.030;2023-04-15T13:11:19;16.60;88.20
16283;DHT22;8249;48.708;9.030;2023-04-15T13:13:46;15.90;89.40
16283;DHT22;8249;48.708;9.030;2023-04-15T13:16:13;15.50;89.90
16283;DHT22;8249;48.708;9.030;2023-04-15T13:18:41;15.50;90.70
16283;DHT22;8249;48.708;9.030;2023-04-15T13:21:08;15.40;90.90
16283;DHT22;8249;48.708;9.030;2023-04-15T13:23:35;15.50;91.30
16283;DHT22;8249;48.708;9.030;2023-04-15T13:26:04;15.50;90.40
16283;DHT22;8249;48.708;9.030;2023-04-15T13:28:32;15.40;91.20
16283;DHT22;8249;48.708;9.030;2023-04-15T13:31:00;15.30;91.10
16283;DHT22;8249;48.708;9.030;2023-04-15T13:33:28;15.10;90.40
16283;DHT22;8249;48.708;9.030;2023-04-15T13:35:56;15.00;91.50
16283;DHT22;8249;48.708;9.030;2023-04-15T13:38:24;14.80;91.00
16283;DHT22;8249;48.708;9.030;2023-04-15T13:40:51;14.30;90.70
16283;DHT22;8249;48.708;9.030;2023-04-15T13:43:20;14.00;90.30
16283;DHT22;8249;48.708;9.030;2023-04-15T13:45:47;13.70;89.80
16283;DHT22;8249;48.708;9.030;2023-04-15T13:48:14;13.30;90.60
16283;DHT22;8249;48.708;9.030;2023-04-15T13:50:41;12.90;91.90
16283;DHT22;8249;48.708;9.030;2023-04-15T13:53:10;12.80;91.80
16283;DHT22;8249;48.708;9.030;2023-04-15T13:55:37;12.80;91.00
16283;DHT22;8249;48.708;9.030;2023-04-15T13:58:06;12.60;90.90
16283;DHT22;8249;48.708;9.030;2023-04-15T14:00:34;12.80;91.70
16283;DHT22;8249;48.708;9.030;2023-04-15T14:03:01;13.00;92.20
16283;DHT22;8249;48.708;9.030;2023-04-15T14:05:28;13.10;90.70
16283;DHT22;8249;48.708;9.030;2023-04-15T14:07:55;13.40;90.50
16283;DHT22;8249;48.708;9.030;2023-04-15T14:10:22;13.40;90.90
16283;DHT22;8249;48.708;9.030;2023-04-15T14:12:49;13.60;89.70
16283;DHT22;8249;48.708;9.030;2023-04-15T14:15:16;13.80;88.60
16283;DHT22;8249;48.708;9.030;2023-04-15T14:17:44;14.00;88.50
16283;DHT22;8249;48.708;9.030;2023-04-15T14:20:11;13.80;80.00
16283;DHT22;8249;48.708;9.030;2023-04-15T14:22:39;13.60;78.10
16283;DHT22;8249;48.708;9.030;2023-04-15T14:25:07;13.70;79.70
16283;DHT22;8249;48.708;9.030;2023-04-15T14:27:35;13.50;81.20
16283;DHT22;8249;48.708;9.030;2023-04-15T14:30:03;13.40;79.20
16283;DHT22;8249;48.708;9.030;2023-04-15T14:32:30;13.10;78.80
16283;DHT22;8249;48.708;9.030;2023-04-15T14:34:58;13.00;80.30
16283;DHT22;8249;48.708;9.030;2023-04-15T14:37:25;12.90;80.50
16283;DHT22;8249;48.708;9.030;2023-04-15T14:39:52;12.80;82.20
16283;DHT22;8249;48.708;9.030;2023-04-15T14:42:19;12.60;80.50
16283;DHT22;8249;48.708;9.030;2023-04-15T14:44:46;12.50;81.90
16283;DHT22;8249;48.708;9.030;2023-04-15T14:47:13;12.50;84.10
16283;DHT22;8249;48.708;9.030;2023-04-15T14:49:40;12.50;84.70
16283;DHT22;8249;48.708;9.030;2023-04-15T14:52:09;12.50;85.60
16283;DHT22;8249;48.708;9.030;2023-04-15T14:54:36;12.40;87.20
16283;DHT22;8249;48.708;9.030;2023-04-15T14:57:03;12.20;86.00
16283;DHT22;8249;48.708;9.030;2023-04-15T14:59:30;12.30;87.50
16283;DHT22;8249;48.708;9.030;2023-04-15T15:01:57;12.30;87.70
16283;DHT22;8249;48.708;9.030;2023-04-15T15:04:24;12.20;88.70
16283;DHT22;8249;48.708;9.030;2023-04-15T15:06:51;12.10;87.90
16283;DHT22;8249;48.708;9.030;2023-04-15T15:09:19;12.10;88.40
16283;DHT22;8249;48.708;9.030;2023-04-15T15:11:48;12.00;89.90
16283;DHT22;8249;48.708;9.030;2023-04-15T15:14:16;11.90;90.80
16283;DHT22;8249;48.708;9.030;2023-04-15T15:16:43;12.00;90.80
16283;DHT22;8249;48.708;9.030;2023-04-15T15:19:10;12.00;92.40
16283;DHT22;8249;48.708;9.030;2023-04-15T15:21:37;12.10;92.10
16283;DHT22;8249;48.708;9.030;2023-04-15T15:24:04;12.10;92.70
16283;DHT22;8249;48.708;9.030;2023-04-15T15:26:32;12.10;92.10
16283;DHT22;8249;48.708;9.030;2023-04-15T15:28:59;12.10;92.30
16283;DHT22;8249;48.708;9.030;2023-04-15T15:31:26;12.10;92.60
16283;DHT22;8249;48.708;9.030;2023-04-15T15:33:53;12.10;93.20
16283;DHT22;8249;48.708;9.030;2023-04-15T15:36:20;12.00;92.80
16283;DHT22;8249;48.708;9.030;2023-04-15T15:38:47;11.90;93.00
16283;DHT22;8249;48.708;9.030;2023-04-15T15:41:14;11.90;93.20
16283;DHT22;8249;48.708;9.030;2023-04-15T15:43:42;11.90;93.30
16283;DHT22;8249;48.708;9.030;2023-04-15T15:46:10;11.90;93.00
16283;DHT22;8249;48.708;9.030;2023-04-15T15:48:36;11.80;93.70
16283;DHT22;8249;48.708;9.030;2023-04-15T15:51:03;11.80;94.10
16283;DHT22;8249;48.708;9.030;2023-04-15T15:53:30;11.70;93.70
16283;DHT22;8249;48.708;9.030;2023-04-15T15:55:57;11.60;94.00
16283;DHT22;8249;48.708;9.030;2023-04-15T15:58:24;11.50;94.20
16283;DHT22;8249;48.708;9.030;2023-04-15T16:00:53;11.50;94.50
16283;DHT22;8249;48.708;9.030;2023-04-15T16:03:20;11.50;94.90